createdAt,value
2019-05-13T00:01:25.993Z,23.82
2019-05-13T00:05:44.466Z,23.84
2019-05-13T00:08:15.816Z,23.83
2019-05-13T00:10:45.036Z,23.83
2019-05-13T00:13:14.920Z,23.87
2019-05-13T00:15:44.862Z,23.83
2019-05-13T00:18:14.588Z,23.78
2019-05-13T00:20:44.527Z,23.78
2019-05-13T00:23:14.548Z,23.75
2019-05-13T00:25:44.393Z,23.69
2019-05-13T00:28:14.394Z,23.72
2019-05-13T00:30:44.448Z,23.69
2019-05-13T00:33:14.151Z,23.68
2019-05-13T00:35:44.436Z,23.62
2019-05-13T00:38:14.088Z,23.63
2019-05-13T00:40:44.430Z,23.63
2019-05-13T00:43:14.312Z,23.62
2019-05-13T00:46:37.144Z,23.64
2019-05-13T00:49:07.763Z,23.66
2019-05-13T00:51:37.032Z,23.66
2019-05-13T00:54:07.035Z,23.69
2019-05-13T00:56:36.750Z,23.62
2019-05-13T00:59:06.022Z,23.71
2019-05-13T01:01:34.244Z,23.71
2019-05-13T01:04:03.862Z,23.66
2019-05-13T01:06:33.935Z,23.66
2019-05-13T01:09:04.156Z,23.65
2019-05-13T01:11:34.362Z,23.63
2019-05-13T01:14:04.237Z,23.63
2019-05-13T01:16:34.061Z,23.63
2019-05-13T01:19:04.198Z,23.61
2019-05-13T01:21:34.510Z,23.62
2019-05-13T01:24:03.864Z,23.57
2019-05-13T01:26:33.711Z,23.57
2019-05-13T01:29:04.139Z,23.61
2019-05-13T01:31:34.522Z,23.62
2019-05-13T01:34:04.023Z,23.57
2019-05-13T01:36:34.613Z,23.57
2019-05-13T01:39:06.951Z,23.55
2019-05-13T01:41:35.651Z,23.55
2019-05-13T01:44:21.397Z,23.61
2019-05-13T01:46:50.412Z,23.61
2019-05-13T01:49:20.670Z,23.58
2019-05-13T01:51:50.107Z,23.57
2019-05-13T01:54:18.862Z,23.53
2019-05-13T01:56:49.138Z,23.49
2019-05-13T01:59:18.719Z,23.32
2019-05-13T02:03:39.452Z,23.35
2019-05-13T02:06:07.384Z,23.35
2019-05-13T02:08:36.789Z,23.36
2019-05-13T02:11:04.692Z,23.36
2019-05-13T02:13:34.447Z,23.38
2019-05-13T02:16:04.109Z,23.38
2019-05-13T02:18:34.124Z,23.39
2019-05-13T02:21:05.157Z,23.44
2019-05-13T02:23:34.144Z,23.42
2019-05-13T02:26:04.494Z,23.40
2019-05-13T02:28:33.381Z,23.41
2019-05-13T02:31:01.105Z,23.38
2019-05-13T02:33:28.319Z,23.36
2019-05-13T02:35:55.580Z,23.29
2019-05-13T02:38:29.473Z,23.17
2019-05-13T02:40:52.916Z,23.23
2019-05-13T02:43:23.210Z,23.23
2019-05-13T02:45:53.249Z,23.25
2019-05-13T02:48:23.284Z,23.19
2019-05-13T02:52:24.669Z,23.21
2019-05-13T02:54:52.946Z,23.21
2019-05-13T02:57:23.311Z,23.15
2019-05-13T02:59:52.810Z,23.20
2019-05-13T03:02:22.411Z,23.06
2019-05-13T03:04:55.638Z,23.06
2019-05-13T03:07:23.604Z,23.17
2019-05-13T03:09:52.644Z,23.17
2019-05-13T03:12:23.153Z,23.19
2019-05-13T03:14:53.267Z,23.15
2019-05-13T03:17:26.721Z,23.12
2019-05-13T03:19:54.435Z,23.11
2019-05-13T03:22:22.699Z,23.12
2019-05-13T03:24:52.322Z,23.09
2019-05-13T03:30:04.202Z,23.11
2019-05-13T03:32:42.200Z,23.09
2019-05-13T03:35:06.047Z,23.05
2019-05-13T03:37:34.696Z,23.03
2019-05-13T03:40:03.291Z,23.04
2019-05-13T03:42:33.448Z,23.02
2019-05-13T03:45:03.445Z,23.05
2019-05-13T03:47:32.938Z,23.05
2019-05-13T03:50:03.829Z,23.08
2019-05-13T03:52:33.841Z,23.12
2019-05-13T03:55:03.122Z,23.15
2019-05-13T03:57:33.936Z,23.15
2019-05-13T04:00:03.965Z,23.09
2019-05-13T04:02:33.505Z,23.10
2019-05-13T04:06:48.029Z,23.15
2019-05-13T04:09:26.355Z,23.03
2019-05-13T04:11:47.638Z,23.03
2019-05-13T04:14:17.219Z,23.10
2019-05-13T04:16:46.297Z,23.10
2019-05-13T04:19:15.224Z,22.98
2019-05-13T04:21:44.822Z,23.11
2019-05-13T04:24:12.929Z,23.11
2019-05-13T04:26:43.242Z,23.10
2019-05-13T04:29:13.607Z,23.09
2019-05-13T04:31:42.557Z,23.09
2019-05-13T04:34:12.869Z,23.10
2019-05-13T04:36:43.648Z,23.10
2019-05-13T04:39:13.162Z,23.12
2019-05-13T04:41:42.578Z,23.16
2019-05-13T04:44:13.088Z,23.16
2019-05-13T04:46:43.532Z,23.16
2019-05-13T04:49:12.917Z,23.19
2019-05-13T04:51:42.087Z,23.22
2019-05-13T04:54:13.064Z,23.22
2019-05-13T04:57:24.214Z,23.30
2019-05-13T04:59:54.977Z,23.30
2019-05-13T05:02:54.481Z,23.29
2019-05-13T05:06:04.205Z,23.34
2019-05-13T05:09:12.622Z,23.35
2019-05-13T05:12:24.643Z,23.30
2019-05-13T05:15:52.797Z,23.38
2019-05-13T05:19:32.094Z,23.40
2019-05-13T05:22:51.261Z,23.40
2019-05-13T05:26:01.151Z,23.47
2019-05-13T05:29:11.246Z,23.55
2019-05-13T05:32:01.331Z,23.71
2019-05-13T05:35:14.055Z,23.79
2019-05-13T05:38:43.739Z,23.63
2019-05-13T05:41:15.588Z,23.63
2019-05-13T05:43:45.406Z,23.46
2019-05-13T05:46:12.673Z,23.35
2019-05-13T05:48:42.003Z,23.29
2019-05-13T05:51:09.468Z,23.33
2019-05-13T05:53:36.768Z,23.36
2019-05-13T05:56:03.648Z,23.35
2019-05-13T05:58:31.652Z,23.38
2019-05-13T06:00:59.569Z,23.39
2019-05-13T06:03:27.445Z,23.44
2019-05-13T06:05:54.884Z,23.46
2019-05-13T06:08:22.400Z,23.58
2019-05-13T06:10:53.658Z,23.58
2019-05-13T06:13:21.522Z,23.63
2019-05-13T06:15:51.242Z,23.64
2019-05-13T06:18:18.356Z,23.68
2019-05-13T06:20:46.486Z,23.70
2019-05-13T06:23:14.565Z,23.80
2019-05-13T06:25:42.864Z,23.89
2019-05-13T06:28:12.371Z,23.94
2019-05-13T06:30:41.571Z,23.94
2019-05-13T06:33:12.010Z,23.88
2019-05-13T06:35:42.587Z,23.72
2019-05-13T06:38:09.096Z,23.76
2019-05-13T06:40:36.474Z,23.80
2019-05-13T06:43:03.780Z,23.80
2019-05-13T06:47:17.254Z,23.85
2019-05-13T06:49:44.505Z,23.90
2019-05-13T06:52:12.244Z,24.00
2019-05-13T06:54:41.845Z,24.04
2019-05-13T06:57:13.102Z,24.13
2019-05-13T06:59:42.018Z,24.05
2019-05-13T07:02:12.206Z,24.26
2019-05-13T07:04:41.536Z,24.32
2019-05-13T07:07:14.036Z,24.34
2019-05-13T07:09:38.775Z,24.34
2019-05-13T07:12:05.695Z,24.39
2019-05-13T07:14:33.413Z,24.46
2019-05-13T07:17:01.972Z,24.46
2019-05-13T07:19:31.945Z,24.53
2019-05-13T07:21:58.866Z,24.59
2019-05-13T07:24:27.429Z,24.70
2019-05-13T07:26:55.344Z,24.70
2019-05-13T07:29:24.296Z,24.74
2019-05-13T07:31:52.436Z,24.72
2019-05-13T07:34:24.508Z,24.77
2019-05-13T07:36:51.291Z,24.83
2019-05-13T07:39:19.249Z,24.87
2019-05-13T07:41:47.073Z,24.82
2019-05-13T07:44:14.724Z,24.84
2019-05-13T07:46:42.913Z,25.02
2019-05-13T07:49:11.975Z,25.07
2019-05-13T07:51:42.055Z,25.07
2019-05-13T07:54:11.398Z,25.11
2019-05-13T07:56:39.446Z,25.09
2019-05-13T07:59:07.372Z,25.09
2019-05-13T08:01:37.615Z,25.15
2019-05-13T08:04:05.416Z,25.15
2019-05-13T08:06:32.955Z,25.14
2019-05-13T08:09:01.876Z,25.20
2019-05-13T08:11:34.956Z,25.23
2019-05-13T08:14:01.798Z,25.31
2019-05-13T08:16:32.126Z,25.33
2019-05-13T08:18:58.869Z,25.31
2019-05-13T08:21:27.374Z,25.31
2019-05-13T08:23:56.073Z,25.30
2019-05-13T08:26:23.912Z,25.32
2019-05-13T08:29:00.293Z,25.36
2019-05-13T08:31:21.638Z,25.41
2019-05-13T08:33:51.859Z,25.42
2019-05-13T08:36:18.890Z,25.42
2019-05-13T08:38:46.249Z,25.43
2019-05-13T08:41:18.955Z,25.43
2019-05-13T08:43:42.750Z,25.51
2019-05-13T08:46:12.341Z,25.52
2019-05-13T08:48:39.373Z,25.52
2019-05-13T08:51:06.607Z,25.58
2019-05-13T08:53:34.430Z,25.56
2019-05-13T08:56:01.953Z,25.56
2019-05-13T08:58:31.988Z,25.60
2019-05-13T09:01:02.275Z,25.63
2019-05-13T09:03:32.307Z,25.67
2019-05-13T09:05:59.329Z,25.70
2019-05-13T09:08:26.649Z,25.70
2019-05-13T09:10:56.764Z,25.70
2019-05-13T09:13:23.712Z,25.71
2019-05-13T09:15:51.637Z,25.72
2019-05-13T09:18:19.255Z,25.70
2019-05-13T09:20:47.601Z,25.75
2019-05-13T09:23:15.406Z,25.72
2019-05-13T09:25:43.453Z,25.71
2019-05-13T09:28:12.473Z,25.71
2019-05-13T09:30:42.367Z,25.70
2019-05-13T09:33:11.567Z,25.71
2019-05-13T09:35:38.876Z,25.78
2019-05-13T09:38:06.455Z,25.82
2019-05-13T09:40:34.475Z,25.82
2019-05-13T09:43:02.631Z,25.97
2019-05-13T09:45:32.183Z,25.99
2019-05-13T09:48:01.605Z,26.05
2019-05-13T09:50:35.755Z,26.03
2019-05-13T09:53:02.753Z,26.03
2019-05-13T09:55:32.554Z,26.02
2019-05-13T09:58:02.424Z,25.96
2019-05-13T10:00:32.307Z,26.03
2019-05-13T10:03:02.203Z,25.99
2019-05-13T10:05:31.690Z,26.04
2019-05-13T10:08:02.509Z,26.03
2019-05-13T10:10:31.861Z,26.03
2019-05-13T10:13:09.323Z,26.09
2019-05-13T10:15:28.802Z,26.09
2019-05-13T10:17:56.346Z,26.07
2019-05-13T10:20:43.248Z,26.04
2019-05-13T10:23:12.595Z,26.12
2019-05-13T10:25:40.382Z,26.13
2019-05-13T10:28:07.698Z,26.17
2019-05-13T10:30:34.981Z,26.18
2019-05-13T10:33:02.932Z,26.27
2019-05-13T10:35:31.707Z,26.35
2019-05-13T10:38:03.677Z,26.40
2019-05-13T10:40:31.958Z,26.38
2019-05-13T10:42:58.826Z,26.37
2019-05-13T10:45:28.249Z,26.33
2019-05-13T10:47:57.241Z,26.31
2019-05-13T10:50:27.725Z,26.26
2019-05-13T10:52:55.508Z,26.30
2019-05-13T10:55:23.430Z,26.34
2019-05-13T10:57:51.405Z,26.31
2019-05-13T11:00:36.523Z,26.30
2019-05-13T11:03:04.093Z,26.24
2019-05-13T11:05:32.703Z,26.22
2019-05-13T11:08:02.022Z,26.23
2019-05-13T11:10:32.610Z,26.23
2019-05-13T11:13:01.589Z,26.24
2019-05-13T11:15:32.713Z,26.26
2019-05-13T11:17:58.880Z,26.26
2019-05-13T11:20:26.245Z,26.21
2019-05-13T11:22:54.265Z,26.21
2019-05-13T11:25:21.863Z,26.21
2019-05-13T11:27:49.366Z,26.32
2019-05-13T11:30:16.857Z,26.21
2019-05-13T11:32:44.487Z,26.11
2019-05-13T11:35:13.008Z,26.11
2019-05-13T11:37:43.032Z,26.06
2019-05-13T11:40:11.968Z,26.05
2019-05-13T11:42:42.210Z,25.97
2019-05-13T11:45:11.519Z,26.06
2019-05-13T11:47:40.924Z,26.04
2019-05-13T11:50:11.506Z,26.05
2019-05-13T11:52:39.165Z,26.04
2019-05-13T11:55:07.799Z,26.08
2019-05-13T11:57:34.976Z,26.10
2019-05-13T12:00:03.862Z,26.12
2019-05-13T12:02:32.658Z,26.45
2019-05-13T12:05:03.894Z,26.45
2019-05-13T12:07:32.899Z,26.49
2019-05-13T12:10:02.648Z,26.46
2019-05-13T12:12:34.428Z,26.36
2019-05-13T12:15:22.377Z,26.30
2019-05-13T12:17:33.731Z,26.24
2019-05-13T12:20:03.008Z,26.20
2019-05-13T12:22:30.348Z,26.21
2019-05-13T12:24:57.604Z,26.24
2019-05-13T12:27:25.342Z,26.22
2019-05-13T12:29:53.194Z,26.24
2019-05-13T12:32:22.493Z,26.21
2019-05-13T12:34:52.612Z,26.23
2019-05-13T12:37:22.091Z,26.18
2019-05-13T12:39:49.648Z,26.18
2019-05-13T12:42:22.459Z,26.18
2019-05-13T12:45:04.015Z,26.18
2019-05-13T12:47:22.101Z,26.18
2019-05-13T12:49:49.742Z,26.17
2019-05-13T12:52:16.596Z,26.18
2019-05-13T12:54:44.709Z,26.20
2019-05-13T12:57:15.720Z,26.25
2019-05-13T12:59:43.555Z,26.32
2019-05-13T13:02:13.314Z,26.30
2019-05-13T13:05:06.915Z,26.28
2019-05-13T13:07:13.432Z,26.26
2019-05-13T13:09:42.513Z,26.29
2019-05-13T13:12:08.296Z,26.28
2019-05-13T13:14:39.431Z,26.29
2019-05-13T13:17:04.870Z,26.30
2019-05-13T13:19:33.974Z,26.51
2019-05-13T13:22:04.769Z,26.51
2019-05-13T13:24:31.907Z,26.49
2019-05-13T13:26:59.692Z,26.40
2019-05-13T13:29:26.975Z,26.34
2019-05-13T13:32:45.610Z,26.34
2019-05-13T13:35:14.981Z,26.28
2019-05-13T13:37:45.768Z,26.34
2019-05-13T13:40:12.588Z,26.41
2019-05-13T13:42:43.104Z,26.41
2019-05-13T13:45:09.238Z,26.43
2019-05-13T13:47:36.506Z,26.50
2019-05-13T13:50:05.022Z,26.57
2019-05-13T13:52:33.727Z,26.64
2019-05-13T13:55:04.436Z,26.48
2019-05-13T13:57:32.402Z,26.48
2019-05-13T14:02:36.542Z,26.54
2019-05-13T14:05:04.877Z,26.58
2019-05-13T14:07:35.851Z,26.59
2019-05-13T14:10:06.007Z,26.50
2019-05-13T14:12:32.392Z,26.45
2019-05-13T14:15:01.666Z,26.40
2019-05-13T14:17:28.387Z,26.27
2019-05-13T14:19:55.689Z,26.27
2019-05-13T14:22:22.704Z,26.28
2019-05-13T14:24:51.882Z,26.31
2019-05-13T14:27:22.248Z,26.30
2019-05-13T14:29:52.299Z,26.37
2019-05-13T14:32:19.034Z,26.41
2019-05-13T14:34:47.588Z,26.46
2019-05-13T14:37:15.790Z,26.41
2019-05-13T14:39:43.470Z,26.34
2019-05-13T14:42:11.625Z,26.26
2019-05-13T14:44:39.789Z,26.10
2019-05-13T14:47:07.015Z,26.10
2019-05-13T14:49:34.527Z,26.13
2019-05-13T14:52:02.977Z,26.11
2019-05-13T14:54:31.484Z,26.14
2019-05-13T14:56:59.365Z,26.11
2019-05-13T14:59:26.728Z,26.12
2019-05-13T15:01:53.733Z,26.10
2019-05-13T15:04:22.336Z,26.20
2019-05-13T15:06:50.002Z,26.22
2019-05-13T15:09:18.598Z,26.20
2019-05-13T15:11:46.238Z,26.17
2019-05-13T15:14:14.364Z,26.17
2019-05-13T15:16:42.606Z,26.12
2019-05-13T15:19:11.949Z,26.11
2019-05-13T15:21:41.244Z,26.13
2019-05-13T15:24:08.725Z,26.19
2019-05-13T15:26:35.698Z,26.12
2019-05-13T15:29:05.076Z,26.12
2019-05-13T15:31:32.949Z,26.07
2019-05-13T15:34:02.550Z,26.06
2019-05-13T15:36:31.521Z,26.06
2019-05-13T15:39:01.439Z,26.03
2019-05-13T15:41:29.896Z,26.06
2019-05-13T15:43:57.973Z,26.06
2019-05-13T15:46:25.788Z,26.04
2019-05-13T15:48:53.095Z,26.02
2019-05-13T15:51:22.128Z,26.01
2019-05-13T15:53:51.740Z,26.03
2019-05-13T15:56:22.421Z,26.02
2019-05-13T15:58:52.980Z,26.07
2019-05-13T16:01:22.983Z,26.05
2019-05-13T16:03:51.936Z,26.05
2019-05-13T16:06:19.417Z,26.03
2019-05-13T16:08:47.335Z,26.03
2019-05-13T16:11:18.837Z,26.01
2019-05-13T16:13:46.395Z,25.96
2019-05-13T16:16:13.860Z,25.91
2019-05-13T16:18:41.982Z,25.92
2019-05-13T16:21:12.078Z,26.02
2019-05-13T16:23:42.820Z,26.05
2019-05-13T16:26:11.663Z,26.02
2019-05-13T16:28:41.844Z,26.06
2019-05-13T16:31:11.798Z,26.08
2019-05-13T16:33:41.564Z,26.09
2019-05-13T16:36:08.979Z,26.08
2019-05-13T16:38:38.244Z,26.01
2019-05-13T16:41:06.492Z,25.94
2019-05-13T16:43:35.740Z,25.96
2019-05-13T16:46:06.863Z,25.98
2019-05-13T16:50:36.697Z,26.02
2019-05-13T16:53:03.609Z,25.96
2019-05-13T16:55:32.764Z,25.89
2019-05-13T16:58:02.015Z,25.90
2019-05-13T17:00:31.575Z,25.92
2019-05-13T17:03:02.313Z,25.96
2019-05-13T17:05:29.766Z,25.95
2019-05-13T17:07:58.356Z,25.86
2019-05-13T17:10:26.401Z,25.89
2019-05-13T17:12:54.551Z,25.98
2019-05-13T17:15:21.770Z,25.92
2019-05-13T17:17:48.990Z,25.97
2019-05-13T17:20:16.262Z,26.01
2019-05-13T17:22:45.438Z,26.03
2019-05-13T17:25:13.404Z,26.05
2019-05-13T17:27:40.716Z,26.05
2019-05-13T17:30:07.988Z,26.06
2019-05-13T17:32:35.258Z,26.06
2019-05-13T17:35:02.978Z,26.08
2019-05-13T17:37:31.290Z,26.08
2019-05-13T17:40:01.158Z,26.07
2019-05-13T17:42:28.256Z,26.08
2019-05-13T17:45:37.503Z,26.14
2019-05-13T17:48:05.057Z,26.04
2019-05-13T17:50:33.330Z,25.96
2019-05-13T17:53:02.162Z,25.96
2019-05-13T17:55:29.502Z,25.93
2019-05-13T17:57:56.767Z,25.85
2019-05-13T18:00:25.038Z,25.80
2019-05-13T18:02:52.711Z,25.74
2019-05-13T18:05:22.357Z,25.68
2019-05-13T18:07:52.335Z,25.67
2019-05-13T18:10:19.614Z,25.59
2019-05-13T18:12:46.869Z,25.53
2019-05-13T18:15:14.303Z,25.45
2019-05-13T18:17:41.929Z,25.45
2019-05-13T18:20:09.552Z,25.41
2019-05-13T18:22:38.041Z,25.35
2019-05-13T18:25:05.619Z,25.31
2019-05-13T18:27:33.579Z,25.28
2019-05-13T18:30:02.249Z,25.28
2019-05-13T18:32:31.784Z,25.22
2019-05-13T18:35:01.667Z,25.20
2019-05-13T18:37:31.693Z,25.00
2019-05-13T18:40:02.326Z,25.00
2019-05-13T18:42:31.561Z,25.07
2019-05-13T18:45:01.930Z,25.03
2019-05-13T18:47:31.642Z,24.97
2019-05-13T18:50:02.170Z,24.92
2019-05-13T18:52:31.292Z,24.80
2019-05-13T18:55:01.843Z,24.80
2019-05-13T18:57:31.729Z,24.87
2019-05-13T19:00:02.100Z,24.82
2019-05-13T19:02:31.888Z,24.77
2019-05-13T19:05:01.477Z,24.75
2019-05-13T19:07:31.369Z,24.72
2019-05-13T19:09:59.355Z,24.72
2019-05-13T19:12:27.948Z,24.69
2019-05-13T19:14:55.902Z,24.71
2019-05-13T19:17:23.261Z,24.65
2019-05-13T19:19:51.446Z,24.59
2019-05-13T19:22:20.837Z,24.59
2019-05-13T19:24:47.609Z,24.56
2019-05-13T19:27:16.029Z,24.55
2019-05-13T19:29:46.410Z,24.51
2019-05-13T19:32:14.059Z,24.51
2019-05-13T19:34:42.354Z,24.46
2019-05-13T19:37:11.544Z,24.44
2019-05-13T19:39:39.249Z,24.37
2019-05-13T19:42:06.705Z,24.37
2019-05-13T19:44:33.610Z,24.36
2019-05-13T19:47:01.924Z,24.35
2019-05-13T19:49:36.679Z,24.36
2019-05-13T19:52:02.171Z,24.33
2019-05-13T19:54:31.443Z,24.31
2019-05-13T19:57:01.176Z,24.30
2019-05-13T19:59:29.463Z,24.27
2019-05-13T20:01:57.535Z,24.22
2019-05-13T20:04:25.262Z,24.18
2019-05-13T20:06:53.755Z,24.17
2019-05-13T20:09:21.490Z,24.14
2019-05-13T20:11:54.978Z,24.10
2019-05-13T20:14:18.957Z,24.10
2019-05-13T20:16:46.842Z,24.10
2019-05-13T20:19:14.507Z,24.09
2019-05-13T20:21:42.669Z,24.09
2019-05-13T20:24:11.749Z,24.02
2019-05-13T20:26:38.768Z,24.07
2019-05-13T20:29:05.795Z,24.04
2019-05-13T20:31:33.257Z,24.03
2019-05-13T20:34:01.699Z,24.04
2019-05-13T20:36:31.378Z,24.05
2019-05-13T20:38:59.378Z,24.06
2019-05-13T20:41:27.443Z,24.01
2019-05-13T20:43:55.497Z,24.01
2019-05-13T20:46:23.433Z,23.99
2019-05-13T20:48:51.946Z,23.96
2019-05-13T20:51:22.008Z,23.97
2019-05-13T20:53:51.625Z,23.93
2019-05-13T20:56:21.439Z,23.94
2019-05-13T20:58:51.538Z,23.94
2019-05-13T21:01:19.995Z,23.94
2019-05-13T21:03:47.411Z,23.95
2019-05-13T21:06:15.457Z,23.93
2019-05-13T21:08:42.744Z,23.86
2019-05-13T21:11:11.479Z,23.88
2019-05-13T21:13:41.181Z,23.87
2019-05-13T21:16:11.233Z,23.90
2019-05-13T21:18:42.206Z,23.89
2019-05-13T21:21:11.632Z,23.88
2019-05-13T21:23:41.537Z,23.86
2019-05-13T21:26:11.901Z,23.84
2019-05-13T21:28:41.713Z,23.80
2019-05-13T21:31:08.800Z,23.88
2019-05-13T21:33:37.359Z,23.83
2019-05-13T21:36:04.615Z,23.81
2019-05-13T21:38:32.927Z,23.82
2019-05-13T21:41:00.837Z,23.84
2019-05-13T21:43:28.279Z,23.86
2019-05-13T21:45:55.611Z,23.71
2019-05-13T21:48:23.031Z,23.80
2019-05-13T21:50:51.758Z,23.81
2019-05-13T21:53:24.194Z,23.77
2019-05-13T21:55:51.865Z,23.77
2019-05-13T21:58:22.018Z,23.90
2019-05-13T22:00:51.875Z,23.85
2019-05-13T22:03:19.723Z,23.86
2019-05-13T22:05:48.536Z,23.90
2019-05-13T22:08:15.622Z,23.88
2019-05-13T22:10:43.931Z,23.89
2019-05-13T22:13:11.991Z,23.92
2019-05-13T22:15:41.615Z,24.01
2019-05-13T22:18:11.295Z,24.01
2019-05-13T22:20:48.980Z,24.03
2019-05-13T22:23:08.618Z,24.04
2019-05-13T22:25:43.787Z,24.00
2019-05-13T22:28:11.976Z,23.99
2019-05-13T22:30:41.220Z,23.99
2019-05-13T22:33:08.839Z,23.94
2019-05-13T22:35:36.457Z,23.79
2019-05-13T22:42:33.505Z,23.84
2019-05-13T22:45:02.909Z,23.76
2019-05-13T22:47:31.493Z,23.73
2019-05-13T22:50:01.750Z,23.69
2019-05-13T22:52:31.290Z,23.62
2019-05-13T22:55:02.452Z,23.58
2019-05-13T22:57:31.773Z,23.60
2019-05-13T23:00:00.615Z,23.54
2019-05-13T23:02:28.749Z,23.54
2019-05-13T23:04:56.866Z,23.55
2019-05-13T23:07:24.747Z,23.56
2019-05-13T23:09:53.243Z,23.54
2019-05-13T23:12:21.315Z,23.50
2019-05-13T23:14:48.876Z,23.47
2019-05-13T23:17:16.889Z,23.46
2019-05-13T23:19:44.739Z,23.41
2019-05-13T23:22:13.835Z,23.39
2019-05-13T23:24:43.506Z,23.41
2019-05-13T23:27:12.980Z,23.34
2019-05-13T23:29:42.266Z,23.32
2019-05-13T23:32:12.164Z,23.24
2019-05-13T23:34:42.254Z,23.30
2019-05-13T23:37:11.355Z,23.29
2019-05-13T23:39:42.053Z,23.25
2019-05-13T23:42:12.250Z,23.27
2019-05-13T23:44:41.687Z,23.26
2019-05-13T23:47:11.674Z,23.19
2019-05-13T23:49:42.157Z,23.19
2019-05-13T23:52:11.736Z,23.20
2019-05-13T23:54:42.533Z,23.13
2019-05-13T23:57:11.875Z,23.08
2019-05-13T23:59:42.247Z,23.11
